createdAt,value
2018-05-11T00:00:17.237Z,10.54
2018-05-11T00:01:17.191Z,10.57
2018-05-11T00:02:17.175Z,10.54
2018-05-11T00:03:17.216Z,10.6
2018-05-11T00:04:17.293Z,10.61
2018-05-11T00:05:17.226Z,10.53
2018-05-11T00:06:17.217Z,10.61
2018-05-11T00:07:17.203Z,10.63
2018-05-11T00:08:17.189Z,10.65
2018-05-11T00:09:17.147Z,10.64
2018-05-11T00:10:17.229Z,10.55
2018-05-11T00:11:17.194Z,10.66
2018-05-11T00:12:17.201Z,10.65
2018-05-11T00:13:17.215Z,10.68
2018-05-11T00:14:17.158Z,10.69
2018-05-11T00:15:17.165Z,10.59
2018-05-11T00:16:17.167Z,10.58
2018-05-11T00:17:17.174Z,10.71
2018-05-11T00:18:17.180Z,10.61
2018-05-11T00:19:17.192Z,10.59
2018-05-11T00:20:17.195Z,10.58
2018-05-11T00:21:17.195Z,10.6
2018-05-11T00:22:17.175Z,10.6
2018-05-11T00:23:17.216Z,10.58
2018-05-11T00:24:17.235Z,10.49
2018-05-11T00:25:17.196Z,10.46
2018-05-11T00:26:17.172Z,10.49
2018-05-11T00:27:17.667Z,10.42
2018-05-11T00:28:17.225Z,10.44
2018-05-11T00:29:17.174Z,10.61
2018-05-11T00:30:17.200Z,10.55
2018-05-11T00:31:17.198Z,10.52
2018-05-11T00:32:17.187Z,10.48
2018-05-11T00:33:17.174Z,10.49
2018-05-11T00:34:17.219Z,10.47
2018-05-11T00:35:17.190Z,10.44
2018-05-11T00:36:17.308Z,10.47
2018-05-11T00:37:17.635Z,10.46
2018-05-11T00:38:17.247Z,10.54
2018-05-11T00:39:17.192Z,10.54
2018-05-11T00:40:17.219Z,10.41
2018-05-11T00:41:17.233Z,10.42
2018-05-11T00:42:17.214Z,10.49
2018-05-11T00:43:17.219Z,10.47
2018-05-11T00:44:17.231Z,10.44
2018-05-11T00:45:17.237Z,10.44
2018-05-11T00:46:17.310Z,10.41
2018-05-11T00:47:17.515Z,10.41
2018-05-11T00:48:17.220Z,10.43
2018-05-11T00:49:17.211Z,10.46
2018-05-11T00:50:17.238Z,10.41
2018-05-11T00:51:17.197Z,10.4
2018-05-11T00:52:17.330Z,10.47
2018-05-11T00:53:17.221Z,10.46
2018-05-11T00:54:17.211Z,10.39
2018-05-11T00:55:17.256Z,10.41
2018-05-11T00:56:17.190Z,10.37
2018-05-11T00:57:17.213Z,10.32
2018-05-11T00:58:17.237Z,10.29
2018-05-11T00:59:17.218Z,10.33
2018-05-11T01:00:17.260Z,10.41
2018-05-11T01:01:17.212Z,10.44
2018-05-11T01:02:17.279Z,10.4
2018-05-11T01:03:17.264Z,10.4
2018-05-11T01:04:17.223Z,10.37
2018-05-11T01:05:17.249Z,10.38
2018-05-11T01:06:17.344Z,10.4
2018-05-11T01:07:17.417Z,10.46
2018-05-11T01:08:17.211Z,10.45
2018-05-11T01:09:17.307Z,10.52
2018-05-11T01:10:17.215Z,10.52
2018-05-11T01:11:17.256Z,10.46
2018-05-11T01:12:17.625Z,10.47
2018-05-11T01:13:17.204Z,10.47
2018-05-11T01:14:17.268Z,10.44
2018-05-11T01:15:17.262Z,10.4
2018-05-11T01:16:17.508Z,10.35
2018-05-11T01:17:17.230Z,10.3
2018-05-11T01:18:17.236Z,10.44
2018-05-11T01:19:17.232Z,10.42
2018-05-11T01:20:17.251Z,10.46
2018-05-11T01:21:17.255Z,10.46
2018-05-11T01:22:17.249Z,10.38
2018-05-11T01:23:17.255Z,10.39
2018-05-11T01:24:17.249Z,10.34
2018-05-11T01:25:17.221Z,10.34
2018-05-11T01:26:17.246Z,10.36
2018-05-11T01:27:17.648Z,10.33
2018-05-11T01:28:17.229Z,10.45
2018-05-11T01:29:17.225Z,10.44
2018-05-11T01:30:17.236Z,10.45
2018-05-11T01:31:17.219Z,10.5
2018-05-11T01:32:17.285Z,10.45
2018-05-11T01:33:17.238Z,10.41
2018-05-11T01:34:17.224Z,10.46
2018-05-11T01:35:17.253Z,10.38
2018-05-11T01:36:17.259Z,10.35
2018-05-11T01:37:17.254Z,10.41
2018-05-11T01:38:17.228Z,10.34
2018-05-11T01:39:17.231Z,10.38
2018-05-11T01:40:17.341Z,10.33
2018-05-11T01:41:17.233Z,10.37
2018-05-11T01:42:17.758Z,10.37
2018-05-11T01:43:17.292Z,10.36
2018-05-11T01:44:17.239Z,10.36
2018-05-11T01:45:17.233Z,10.28
2018-05-11T01:46:17.237Z,10.28
2018-05-11T01:47:17.246Z,10.29
2018-05-11T01:48:17.376Z,10.37
2018-05-11T01:49:17.278Z,10.3
2018-05-11T01:50:17.259Z,10.27
2018-05-11T01:51:17.240Z,10.3
2018-05-11T01:52:17.284Z,10.27
2018-05-11T01:53:17.228Z,10.26
2018-05-11T01:54:17.235Z,10.26
2018-05-11T01:55:17.262Z,10.26
2018-05-11T01:56:17.246Z,10.21
2018-05-11T01:57:17.252Z,10.22
2018-05-11T01:58:17.272Z,10.34
2018-05-11T01:59:17.279Z,10.36
2018-05-11T02:00:17.247Z,10.31
2018-05-11T02:01:17.256Z,10.27
2018-05-11T02:02:17.241Z,10.22
2018-05-11T02:03:17.348Z,10.24
2018-05-11T02:04:17.305Z,10.3
2018-05-11T02:05:17.216Z,10.24
2018-05-11T02:06:17.312Z,10.27
2018-05-11T02:07:17.284Z,10.23
2018-05-11T02:08:17.372Z,10.25
2018-05-11T02:09:17.270Z,10.19
2018-05-11T02:10:17.298Z,10.28
2018-05-11T02:11:17.319Z,10.21
2018-05-11T02:12:17.246Z,10.25
2018-05-11T02:13:17.252Z,10.18
2018-05-11T02:14:17.265Z,10.16
2018-05-11T02:15:17.249Z,10.16
2018-05-11T02:16:17.245Z,10.14
2018-05-11T02:17:17.251Z,10.2
2018-05-11T02:18:17.263Z,10.2
2018-05-11T02:19:17.249Z,10.13
2018-05-11T02:20:17.239Z,10.11
2018-05-11T02:21:17.256Z,10.08
2018-05-11T02:22:17.257Z,10.09
2018-05-11T02:23:17.250Z,10.14
2018-05-11T02:24:17.259Z,10.08
2018-05-11T02:25:17.246Z,10.09
2018-05-11T02:26:17.265Z,10.09
2018-05-11T02:27:17.243Z,10.06
2018-05-11T02:28:17.304Z,10.08
2018-05-11T02:29:17.270Z,10.06
2018-05-11T02:30:17.389Z,10.11
2018-05-11T02:31:17.272Z,10.07
2018-05-11T02:32:17.267Z,10.06
2018-05-11T02:33:17.320Z,10.07
2018-05-11T02:34:17.307Z,10.17
2018-05-11T02:35:17.277Z,10.11
2018-05-11T02:36:17.293Z,10.17
2018-05-11T02:37:17.267Z,10.15
2018-05-11T02:38:17.255Z,10.17
2018-05-11T02:39:17.286Z,10.15
2018-05-11T02:40:17.288Z,10.07
2018-05-11T02:41:17.358Z,10.03
2018-05-11T02:42:17.301Z,10.11
2018-05-11T02:43:17.280Z,10.11
2018-05-11T02:44:17.267Z,10.07
2018-05-11T02:45:17.257Z,10.01
2018-05-11T02:46:17.308Z,9.98
2018-05-11T02:47:17.257Z,10.08
2018-05-11T02:48:17.293Z,10.06
2018-05-11T02:49:17.259Z,9.99
2018-05-11T02:50:17.360Z,9.97
2018-05-11T02:51:17.369Z,9.97
2018-05-11T02:52:17.303Z,9.96
2018-05-11T02:53:17.384Z,10
2018-05-11T02:54:17.250Z,9.93
2018-05-11T02:55:17.257Z,10
2018-05-11T02:56:17.278Z,9.99
2018-05-11T02:57:17.309Z,10.06
2018-05-11T02:58:17.305Z,9.99
2018-05-11T02:59:17.365Z,10.02
2018-05-11T03:00:17.292Z,9.99
2018-05-11T03:01:17.386Z,9.97
2018-05-11T03:02:17.249Z,9.98
2018-05-11T03:03:17.277Z,9.99
2018-05-11T03:04:17.331Z,9.96
2018-05-11T03:05:17.270Z,9.96
2018-05-11T03:06:17.318Z,9.91
2018-05-11T03:07:17.357Z,9.9
2018-05-11T03:08:17.372Z,9.86
2018-05-11T03:09:17.288Z,9.81
2018-05-11T03:10:17.297Z,9.86
2018-05-11T03:11:17.328Z,9.84
2018-05-11T03:12:17.329Z,9.93
2018-05-11T03:13:17.387Z,9.89
2018-05-11T03:14:17.292Z,9.87
2018-05-11T03:15:17.288Z,9.9
2018-05-11T03:16:17.275Z,9.88
2018-05-11T03:17:17.274Z,9.87
2018-05-11T03:18:17.247Z,9.81
2018-05-11T03:19:17.274Z,9.88
2018-05-11T03:20:17.305Z,9.79
2018-05-11T03:21:17.357Z,9.83
2018-05-11T03:22:17.277Z,9.77
2018-05-11T03:23:17.281Z,9.8
2018-05-11T03:24:17.278Z,9.8
2018-05-11T03:25:17.294Z,9.75
2018-05-11T03:26:17.452Z,9.77
2018-05-11T03:27:17.476Z,9.81
2018-05-11T03:28:17.296Z,9.83
2018-05-11T03:29:17.290Z,9.76
2018-05-11T03:30:17.305Z,9.79
2018-05-11T03:31:17.306Z,9.76
2018-05-11T03:32:17.300Z,9.72
2018-05-11T03:33:17.402Z,9.72
2018-05-11T03:34:17.297Z,9.69
2018-05-11T03:35:17.267Z,9.65
2018-05-11T03:36:17.302Z,9.62
2018-05-11T03:37:17.270Z,9.6
2018-05-11T03:38:17.281Z,9.6
2018-05-11T03:39:17.307Z,9.59
2018-05-11T03:40:17.284Z,9.58
2018-05-11T03:41:17.306Z,9.65
2018-05-11T03:42:17.350Z,9.6
2018-05-11T03:43:17.310Z,9.61
2018-05-11T03:44:17.306Z,9.57
2018-05-11T03:45:17.335Z,9.56
2018-05-11T03:46:17.303Z,9.55
2018-05-11T03:47:17.291Z,9.65
2018-05-11T03:48:17.312Z,9.63
2018-05-11T03:49:17.313Z,9.64
2018-05-11T03:50:17.267Z,9.65
2018-05-11T03:51:17.304Z,9.68
2018-05-11T03:52:17.315Z,9.71
2018-05-11T03:53:17.292Z,9.59
2018-05-11T03:54:17.290Z,9.57
2018-05-11T03:55:17.340Z,9.55
2018-05-11T03:56:17.283Z,9.58
2018-05-11T03:57:17.291Z,9.53
2018-05-11T03:58:17.297Z,9.55
2018-05-11T03:59:17.305Z,9.5
2018-05-11T04:00:17.283Z,9.52
2018-05-11T04:01:17.322Z,9.53
2018-05-11T04:02:17.315Z,9.52
2018-05-11T04:03:17.346Z,9.51
2018-05-11T04:04:17.305Z,9.54
2018-05-11T04:05:17.296Z,9.57
2018-05-11T04:06:17.308Z,9.5
2018-05-11T04:07:17.316Z,9.55
2018-05-11T04:08:17.288Z,9.55
2018-05-11T04:09:17.354Z,9.51
2018-05-11T04:10:17.344Z,9.6
2018-05-11T04:11:17.292Z,9.61
2018-05-11T04:12:17.300Z,9.51
2018-05-11T04:13:18.065Z,9.5
2018-05-11T04:14:17.367Z,9.51
2018-05-11T04:15:17.319Z,9.52
2018-05-11T04:16:17.343Z,9.42
2018-05-11T04:17:17.293Z,9.51
2018-05-11T04:18:17.407Z,9.48
2018-05-11T04:19:17.595Z,9.4
2018-05-11T04:20:17.332Z,9.46
2018-05-11T04:21:17.260Z,9.44
2018-05-11T04:22:17.293Z,9.37
2018-05-11T04:23:17.357Z,9.35
2018-05-11T04:24:17.376Z,9.4
2018-05-11T04:25:17.354Z,9.32
2018-05-11T04:26:17.351Z,9.3
2018-05-11T04:27:17.328Z,9.3
2018-05-11T04:28:17.302Z,9.29
2018-05-11T04:29:17.289Z,9.34
2018-05-11T04:30:17.791Z,9.28
2018-05-11T04:31:17.306Z,9.37
2018-05-11T04:32:17.347Z,9.36
2018-05-11T04:33:17.293Z,9.26
2018-05-11T04:34:17.345Z,9.26
2018-05-11T04:35:17.375Z,9.26
2018-05-11T04:36:17.282Z,9.34
2018-05-11T04:37:17.817Z,9.3
2018-05-11T04:38:17.289Z,9.25
2018-05-11T04:39:17.294Z,9.25
2018-05-11T04:40:17.338Z,9.31
2018-05-11T04:41:17.321Z,9.28
2018-05-11T04:42:17.349Z,9.37
2018-05-11T04:43:17.328Z,9.37
2018-05-11T04:44:17.323Z,9.32
2018-05-11T04:45:17.639Z,9.45
2018-05-11T04:46:17.303Z,9.45
2018-05-11T04:47:17.324Z,9.46
2018-05-11T04:48:17.334Z,9.42
2018-05-11T04:49:17.315Z,9.44
2018-05-11T04:50:17.709Z,9.44
2018-05-11T04:51:17.340Z,9.49
2018-05-11T04:52:17.374Z,9.5
2018-05-11T04:53:17.325Z,9.43
2018-05-11T04:54:17.440Z,9.39
2018-05-11T04:55:17.438Z,9.45
2018-05-11T04:56:17.300Z,9.48
2018-05-11T04:57:17.321Z,9.51
2018-05-11T04:58:17.327Z,9.47
2018-05-11T04:59:17.305Z,9.44
2018-05-11T05:00:17.336Z,9.47
2018-05-11T05:01:17.384Z,9.54
2018-05-11T05:02:17.572Z,9.43
2018-05-11T05:03:17.280Z,9.48
2018-05-11T05:04:17.325Z,9.42
2018-05-11T05:05:17.340Z,9.47
2018-05-11T05:06:17.318Z,9.47
2018-05-11T05:07:17.368Z,9.47
2018-05-11T05:08:17.333Z,9.5
2018-05-11T05:09:17.290Z,9.43
2018-05-11T05:10:17.322Z,9.42
2018-05-11T05:11:17.336Z,9.45
2018-05-11T05:12:17.752Z,9.5
2018-05-11T05:13:17.306Z,9.54
2018-05-11T05:14:17.478Z,9.45
2018-05-11T05:15:17.370Z,9.55
2018-05-11T05:16:17.357Z,9.5
2018-05-11T05:17:17.325Z,9.55
2018-05-11T05:18:17.374Z,9.51
2018-05-11T05:19:17.569Z,9.57
2018-05-11T05:20:17.417Z,9.66
2018-05-11T05:21:17.343Z,9.66
2018-05-11T05:22:17.356Z,9.74
2018-05-11T05:23:17.314Z,9.68
2018-05-11T05:24:17.383Z,9.68
2018-05-11T05:25:17.340Z,9.68
2018-05-11T05:26:17.317Z,9.67
2018-05-11T05:27:17.310Z,9.64
2018-05-11T05:28:17.337Z,9.72
2018-05-11T05:29:17.435Z,9.77
2018-05-11T05:30:17.351Z,9.78
2018-05-11T05:31:17.317Z,9.7
2018-05-11T05:32:17.348Z,9.7
2018-05-11T05:33:17.417Z,9.76
2018-05-11T05:34:17.311Z,9.75
2018-05-11T05:35:17.328Z,9.71
2018-05-11T05:36:17.362Z,9.72
2018-05-11T05:37:17.379Z,9.8
2018-05-11T05:38:17.323Z,9.85
2018-05-11T05:39:18.332Z,9.81
2018-05-11T05:40:17.325Z,9.92
2018-05-11T05:41:17.334Z,9.9
2018-05-11T05:42:17.665Z,9.94
2018-05-11T05:43:17.453Z,9.94
2018-05-11T05:44:17.381Z,9.92
2018-05-11T05:45:17.356Z,10.01
2018-05-11T05:46:17.374Z,9.97
2018-05-11T05:47:17.391Z,9.99
2018-05-11T05:48:17.368Z,10.06
2018-05-11T05:49:17.349Z,9.98
2018-05-11T05:50:17.355Z,10
2018-05-11T05:51:17.443Z,10.09
2018-05-11T05:52:17.355Z,10.11
2018-05-11T05:53:17.383Z,10.03
2018-05-11T05:54:17.396Z,10.06
2018-05-11T05:55:17.430Z,10.02
2018-05-11T05:56:17.343Z,10.03
2018-05-11T05:57:17.334Z,10.02
2018-05-11T05:58:17.337Z,10.17
2018-05-11T05:59:17.375Z,10.08
2018-05-11T06:00:17.405Z,10.18
2018-05-11T06:01:17.366Z,10.16
2018-05-11T06:02:17.374Z,10.17
2018-05-11T06:03:17.356Z,10.12
2018-05-11T06:04:17.342Z,10.1
2018-05-11T06:05:17.326Z,10.15
2018-05-11T06:06:17.422Z,10.14
2018-05-11T06:07:17.711Z,10.16
2018-05-11T06:08:17.785Z,10.22
2018-05-11T06:09:17.323Z,10.19
2018-05-11T06:10:17.348Z,10.16
2018-05-11T06:11:17.574Z,10.31
2018-05-11T06:12:17.370Z,10.32
2018-05-11T06:13:17.339Z,10.26
2018-05-11T06:14:17.375Z,10.25
2018-05-11T06:15:17.338Z,10.29
2018-05-11T06:16:17.351Z,10.24
2018-05-11T06:17:17.505Z,10.27
2018-05-11T06:18:17.368Z,10.32
2018-05-11T06:19:17.383Z,10.36
2018-05-11T06:20:17.351Z,10.46
2018-05-11T06:21:17.364Z,10.5
2018-05-11T06:22:17.376Z,10.46
2018-05-11T06:23:17.390Z,10.47
2018-05-11T06:24:17.406Z,10.42
2018-05-11T06:25:17.392Z,10.46
2018-05-11T06:26:17.349Z,10.54
2018-05-11T06:27:17.374Z,10.38
2018-05-11T06:28:18.239Z,10.4
2018-05-11T06:29:17.498Z,10.41
2018-05-11T06:30:17.354Z,10.46
2018-05-11T06:31:17.373Z,10.44
2018-05-11T06:32:17.448Z,10.44
2018-05-11T06:33:17.365Z,10.46
2018-05-11T06:34:17.353Z,10.43
2018-05-11T06:35:17.384Z,10.46
2018-05-11T06:36:17.367Z,10.32
2018-05-11T06:37:17.392Z,10.33
2018-05-11T06:38:17.366Z,10.3
2018-05-11T06:39:17.417Z,10.36
2018-05-11T06:40:17.358Z,10.12
2018-05-11T06:41:17.358Z,10.29
2018-05-11T06:42:17.392Z,10.29
2018-05-11T06:43:17.392Z,10.19
2018-05-11T06:44:17.361Z,10.13
2018-05-11T06:45:17.359Z,10.17
2018-05-11T06:46:17.357Z,10.17
2018-05-11T06:47:17.794Z,10.19
2018-05-11T06:48:17.360Z,10.29
2018-05-11T06:49:17.375Z,10.47
2018-05-11T06:50:17.539Z,10.55
2018-05-11T06:51:17.372Z,10.58
2018-05-11T06:52:17.425Z,10.58
2018-05-11T06:53:17.381Z,10.65
2018-05-11T06:54:17.391Z,10.58
2018-05-11T06:55:17.491Z,10.43
2018-05-11T06:56:17.362Z,10.58
2018-05-11T06:57:17.381Z,10.58
2018-05-11T06:58:17.340Z,10.54
2018-05-11T06:59:17.400Z,10.53
2018-05-11T07:00:17.530Z,10.63
2018-05-11T07:01:18.257Z,10.69
2018-05-11T07:02:17.378Z,10.7
2018-05-11T07:03:17.521Z,10.72
2018-05-11T07:04:17.428Z,10.78
2018-05-11T07:05:17.369Z,10.82
2018-05-11T07:06:17.415Z,10.9
2018-05-11T07:07:17.631Z,10.95
2018-05-11T07:08:17.355Z,10.97
2018-05-11T07:09:17.386Z,10.94
2018-05-11T07:10:17.370Z,10.95
2018-05-11T07:11:17.343Z,10.7
2018-05-11T07:12:17.373Z,10.81
2018-05-11T07:13:17.391Z,10.97
2018-05-11T07:14:17.375Z,10.92
2018-05-11T07:15:17.535Z,10.93
2018-05-11T07:16:17.378Z,10.95
2018-05-11T07:17:17.397Z,11.06
2018-05-11T07:18:17.396Z,10.99
2018-05-11T07:19:19.005Z,10.98
2018-05-11T07:20:17.360Z,11.01
2018-05-11T07:21:17.347Z,11.1
2018-05-11T07:22:17.382Z,11.12
2018-05-11T07:23:17.384Z,11.01
2018-05-11T07:24:17.739Z,10.97
2018-05-11T07:25:17.380Z,11.15
2018-05-11T07:26:17.662Z,11.19
2018-05-11T07:27:17.819Z,11.15
2018-05-11T07:28:17.440Z,11.13
2018-05-11T07:29:17.511Z,11.15
2018-05-11T07:30:17.383Z,11.15
2018-05-11T07:31:17.356Z,11.19
2018-05-11T07:32:17.387Z,11.05
2018-05-11T07:33:17.402Z,10.95
2018-05-11T07:34:17.380Z,10.91
2018-05-11T07:35:17.356Z,10.91
2018-05-11T07:36:17.407Z,10.99
2018-05-11T07:37:17.417Z,11.18
2018-05-11T07:38:17.416Z,11.21
2018-05-11T07:39:17.469Z,11.28
2018-05-11T07:40:17.406Z,11.3
2018-05-11T07:41:17.411Z,11.34
2018-05-11T07:42:17.407Z,11.3
2018-05-11T07:43:18.172Z,11.29
2018-05-11T07:44:17.421Z,11.15
2018-05-11T07:45:17.381Z,11.13
2018-05-11T07:46:17.408Z,11.31
2018-05-11T07:47:17.456Z,11.37
2018-05-11T07:48:17.456Z,11.5
2018-05-11T07:49:17.477Z,11.72
2018-05-11T07:50:17.398Z,11.55
2018-05-11T07:51:17.453Z,11.66
2018-05-11T07:52:17.401Z,11.5
2018-05-11T07:53:17.514Z,11.57
2018-05-11T07:54:17.460Z,11.62
2018-05-11T07:55:17.441Z,11.59
2018-05-11T07:56:17.444Z,11.55
2018-05-11T07:57:17.560Z,11.71
2018-05-11T07:58:17.425Z,11.42
2018-05-11T07:59:17.423Z,11.3
2018-05-11T08:00:17.448Z,11.13
2018-05-11T08:01:17.446Z,11.39
2018-05-11T08:02:17.481Z,11.36
2018-05-11T08:03:17.407Z,11.53
2018-05-11T08:04:17.479Z,11.52
2018-05-11T08:05:17.546Z,11.6
2018-05-11T08:06:17.422Z,11.77
2018-05-11T08:07:17.790Z,11.74
2018-05-11T08:08:17.476Z,11.69
2018-05-11T08:09:17.530Z,11.71
2018-05-11T08:10:17.405Z,11.58
2018-05-11T08:11:17.527Z,11.66
2018-05-11T08:12:17.459Z,11.27
2018-05-11T08:13:17.438Z,11.44
2018-05-11T08:14:18.105Z,11.59
2018-05-11T08:15:17.543Z,11.66
2018-05-11T08:16:17.444Z,11.64
2018-05-11T08:17:17.422Z,11.55
2018-05-11T08:18:17.423Z,11.78
2018-05-11T08:19:17.441Z,11.67
2018-05-11T08:20:17.436Z,11.67
2018-05-11T08:21:17.846Z,11.54
2018-05-11T08:22:17.423Z,11.66
2018-05-11T08:23:17.454Z,11.59
2018-05-11T08:24:17.454Z,11.71
2018-05-11T08:25:17.443Z,11.81
2018-05-11T08:26:17.467Z,11.84
2018-05-11T08:27:17.419Z,11.71
2018-05-11T08:28:17.543Z,11.41
2018-05-11T08:29:17.462Z,11.4
2018-05-11T08:30:17.451Z,11.45
2018-05-11T08:31:17.448Z,11.6
2018-05-11T08:32:17.437Z,11.56
2018-05-11T08:33:17.476Z,11.58
2018-05-11T08:34:17.424Z,11.73
2018-05-11T08:35:17.477Z,11.5
2018-05-11T08:36:17.467Z,11.54
2018-05-11T08:37:17.440Z,11.44
2018-05-11T08:38:17.677Z,11.54
2018-05-11T08:39:17.488Z,11.6
2018-05-11T08:40:17.465Z,11.59
2018-05-11T08:41:17.451Z,11.67
2018-05-11T08:42:17.565Z,11.47
2018-05-11T08:43:17.469Z,11.44
2018-05-11T08:44:17.469Z,11.59
2018-05-11T08:45:17.454Z,11.69
2018-05-11T08:46:17.968Z,11.81
2018-05-11T08:47:17.426Z,11.8
2018-05-11T08:48:18.134Z,11.47
2018-05-11T08:49:18.067Z,11.44
2018-05-11T08:50:17.451Z,11.33
2018-05-11T08:51:17.502Z,10.96
2018-05-11T08:52:17.423Z,11.23
2018-05-11T08:53:17.440Z,11.03
2018-05-11T08:54:17.619Z,10.99
2018-05-11T08:55:17.464Z,11.27
2018-05-11T08:56:17.461Z,11.23
2018-05-11T08:57:18.098Z,11.05
2018-05-11T08:58:17.453Z,10.72
2018-05-11T08:59:17.442Z,10.43
2018-05-11T09:00:17.512Z,10.53
2018-05-11T09:01:17.456Z,10.66
2018-05-11T09:02:17.479Z,10.49
2018-05-11T09:03:17.450Z,10.84
2018-05-11T09:04:17.445Z,11.17
2018-05-11T09:05:17.491Z,11.13
2018-05-11T09:06:17.440Z,11.2
2018-05-11T09:07:17.471Z,11.15
2018-05-11T09:08:17.726Z,10.82
2018-05-11T09:09:17.487Z,11.02
2018-05-11T09:10:17.433Z,10.76
2018-05-11T09:11:17.441Z,10.87
2018-05-11T09:12:17.448Z,10.82
2018-05-11T09:13:17.456Z,10.89
2018-05-11T09:14:17.451Z,11.02
2018-05-11T09:15:17.476Z,11.05
2018-05-11T09:16:17.445Z,10.81
2018-05-11T09:17:17.480Z,11.09
2018-05-11T09:18:17.508Z,11.02
2018-05-11T09:19:17.447Z,11.33
2018-05-11T09:20:17.432Z,11.1
2018-05-11T09:21:17.492Z,11.29
2018-05-11T09:22:17.460Z,11.04
2018-05-11T09:23:17.489Z,11.23
2018-05-11T09:24:17.489Z,11.08
2018-05-11T09:25:17.505Z,11.25
2018-05-11T09:26:17.495Z,11.24
2018-05-11T09:27:17.493Z,11.15
2018-05-11T09:28:17.533Z,10.81
2018-05-11T09:29:17.524Z,10.88
2018-05-11T09:30:17.479Z,11.06
2018-05-11T09:31:18.527Z,11.24
2018-05-11T09:32:17.451Z,11.17
2018-05-11T09:33:17.457Z,11.33
2018-05-11T09:34:17.465Z,11.1
2018-05-11T09:35:17.471Z,11.09
2018-05-11T09:36:17.482Z,10.5
2018-05-11T09:37:17.482Z,10.61
2018-05-11T09:38:17.454Z,10.67
2018-05-11T09:39:17.488Z,10.81
2018-05-11T09:40:17.476Z,10.6
2018-05-11T09:41:17.485Z,10.47
2018-05-11T09:42:17.486Z,10.84
2018-05-11T09:43:17.456Z,10.85
2018-05-11T09:44:17.470Z,10.95
2018-05-11T09:45:17.848Z,11.15
2018-05-11T09:46:17.551Z,11.19
2018-05-11T09:47:17.554Z,10.94
2018-05-11T09:48:17.460Z,10.59
2018-05-11T09:49:17.472Z,9.99
2018-05-11T09:50:17.450Z,10.25
2018-05-11T09:51:17.473Z,10.81
2018-05-11T09:52:17.789Z,10.62
2018-05-11T09:53:17.494Z,11.11
2018-05-11T09:54:17.502Z,11.18
2018-05-11T09:55:17.465Z,10.95
2018-05-11T09:56:17.474Z,10.99
2018-05-11T09:57:17.656Z,10.64
2018-05-11T09:58:17.558Z,10.57
2018-05-11T09:59:17.492Z,10.95
2018-05-11T10:00:17.469Z,10.91
2018-05-11T10:01:17.480Z,11.03
2018-05-11T10:02:17.514Z,10.47
2018-05-11T10:03:17.462Z,10.35
2018-05-11T10:04:17.477Z,10.51
2018-05-11T10:05:17.510Z,10.97
2018-05-11T10:06:17.481Z,10.68
2018-05-11T10:07:17.474Z,10.8
2018-05-11T10:08:17.498Z,10.87
2018-05-11T10:09:17.465Z,10.37
2018-05-11T10:10:17.475Z,10.55
2018-05-11T10:11:17.472Z,10.86
2018-05-11T10:12:17.571Z,10.96
2018-05-11T10:13:17.485Z,10.81
2018-05-11T10:14:17.459Z,10.82
2018-05-11T10:15:17.469Z,10.3
2018-05-11T10:16:17.457Z,10.89
2018-05-11T10:17:17.491Z,11
2018-05-11T10:18:17.466Z,11.16
2018-05-11T10:19:17.503Z,10.71
2018-05-11T10:20:17.613Z,10.75
2018-05-11T10:21:17.452Z,10.89
2018-05-11T10:22:17.454Z,10.88
2018-05-11T10:23:17.461Z,10.71
2018-05-11T10:24:17.497Z,11.11
2018-05-11T10:25:17.481Z,10.64
2018-05-11T10:26:17.533Z,10.67
2018-05-11T10:27:17.496Z,10.84
2018-05-11T10:28:17.506Z,10.55
2018-05-11T10:29:17.479Z,10.86
2018-05-11T10:30:17.479Z,10.59
2018-05-11T10:31:17.478Z,10.5
2018-05-11T10:32:17.488Z,10.83
2018-05-11T10:33:17.499Z,10.71
2018-05-11T10:34:17.455Z,10.81
2018-05-11T10:35:17.596Z,10.64
2018-05-11T10:36:17.512Z,10.4
2018-05-11T10:37:17.484Z,10.48
2018-05-11T10:38:17.471Z,10
2018-05-11T10:39:17.490Z,9.99
2018-05-11T10:40:17.538Z,9.87
2018-05-11T10:41:17.481Z,10.2
2018-05-11T10:42:17.467Z,10.32
2018-05-11T10:43:17.499Z,10.37
2018-05-11T10:44:17.480Z,10.64
2018-05-11T10:45:17.565Z,10.69
2018-05-11T10:46:17.791Z,10.56
2018-05-11T10:47:17.463Z,10.74
2018-05-11T10:48:17.506Z,10.62
2018-05-11T10:49:17.467Z,10.33
2018-05-11T10:50:17.548Z,10.51
2018-05-11T10:51:17.478Z,10.28
2018-05-11T10:52:17.562Z,10.7
2018-05-11T10:53:17.480Z,10.76
2018-05-11T10:54:17.543Z,10.69
2018-05-11T10:55:17.484Z,10.82
2018-05-11T10:56:17.475Z,10.56
2018-05-11T10:57:17.588Z,10.37
2018-05-11T10:58:17.536Z,10.26
2018-05-11T10:59:17.794Z,10.42
2018-05-11T11:00:17.524Z,10.53
2018-05-11T11:01:17.560Z,10.51
2018-05-11T11:02:17.881Z,10.93
2018-05-11T11:03:17.563Z,10.23
2018-05-11T11:04:17.522Z,10.4
2018-05-11T11:05:17.520Z,10.75
2018-05-11T11:06:17.586Z,10.73
2018-05-11T11:07:17.624Z,10.78
2018-05-11T11:08:17.598Z,10.93
2018-05-11T11:09:17.482Z,10.32
2018-05-11T11:10:17.523Z,10.01
2018-05-11T11:11:17.494Z,10.35
2018-05-11T11:12:17.517Z,9.98
2018-05-11T11:13:17.504Z,9.82
2018-05-11T11:14:17.774Z,10.34
2018-05-11T11:15:17.501Z,10.01
2018-05-11T11:16:17.549Z,10.12
2018-05-11T11:17:17.532Z,10
2018-05-11T11:18:17.604Z,10.03
2018-05-11T11:19:17.587Z,9.98
2018-05-11T11:20:17.522Z,10.18
2018-05-11T11:21:17.666Z,10.03
2018-05-11T11:22:17.529Z,10.09
2018-05-11T11:23:17.476Z,10.1
2018-05-11T11:24:17.505Z,10.15
2018-05-11T11:25:17.605Z,10.05
2018-05-11T11:26:18.724Z,10.11
2018-05-11T11:27:17.733Z,10
2018-05-11T11:28:17.614Z,9.75
2018-05-11T11:29:17.748Z,9.44
2018-05-11T11:30:17.559Z,10.01
2018-05-11T11:31:17.501Z,10.3
2018-05-11T11:32:17.652Z,10.14
2018-05-11T11:33:17.673Z,10.11
2018-05-11T11:34:21.040Z,10.07
2018-05-11T11:35:17.676Z,10.05
2018-05-11T11:36:17.498Z,9.83
2018-05-11T11:37:17.679Z,10.13
2018-05-11T11:38:17.677Z,9.97
2018-05-11T11:39:17.691Z,10.14
2018-05-11T11:40:17.732Z,10.36
2018-05-11T11:41:17.680Z,10.6
2018-05-11T11:42:18.008Z,10.36
2018-05-11T11:43:17.521Z,10.59
2018-05-11T11:44:17.516Z,10.63
2018-05-11T11:45:17.730Z,9.3
2018-05-11T11:46:17.643Z,9.75
2018-05-11T11:47:17.682Z,9.97
2018-05-11T11:48:17.688Z,10.01
2018-05-11T11:49:17.656Z,9.87
2018-05-11T11:50:17.670Z,10.06
2018-05-11T11:51:17.688Z,10.02
2018-05-11T11:52:17.523Z,9.89
2018-05-11T11:53:17.683Z,10.14
2018-05-11T11:54:17.708Z,10.03
2018-05-11T11:55:17.613Z,9.98
2018-05-11T11:56:17.816Z,9.69
2018-05-11T11:57:17.630Z,10.12
2018-05-11T11:58:17.735Z,9.97
2018-05-11T11:59:17.738Z,9.92
2018-05-11T12:00:17.646Z,10
2018-05-11T12:01:17.673Z,10.07
2018-05-11T12:02:17.528Z,10.01
2018-05-11T12:03:17.562Z,9.89
2018-05-11T12:04:17.758Z,9.75
2018-05-11T12:05:17.688Z,10.01
2018-05-11T12:06:18.727Z,9.43
2018-05-11T12:07:19.746Z,9.27
2018-05-11T12:08:17.614Z,9.66
2018-05-11T12:09:17.681Z,9.85
2018-05-11T12:10:17.586Z,9.96
2018-05-11T12:11:17.540Z,9.85
2018-05-11T12:12:17.775Z,10.32
2018-05-11T12:13:17.518Z,9.92
2018-05-11T12:14:17.738Z,9.86
2018-05-11T12:15:17.749Z,9.62
2018-05-11T12:16:17.630Z,9.72
2018-05-11T12:17:17.808Z,10.03
2018-05-11T12:18:17.698Z,9.63
2018-05-11T12:19:17.700Z,9.91
2018-05-11T12:20:17.776Z,9.25
2018-05-11T12:21:17.669Z,9.13
2018-05-11T12:22:17.538Z,9.23
2018-05-11T12:23:17.878Z,9.29
2018-05-11T12:24:17.785Z,8.94
2018-05-11T12:25:17.706Z,8.87
2018-05-11T12:26:18.083Z,8.69
2018-05-11T12:27:17.618Z,8.73
2018-05-11T12:28:17.726Z,9.28
2018-05-11T12:29:18.649Z,9.35
2018-05-11T12:30:17.637Z,9.67
2018-05-11T12:31:17.571Z,9.65
2018-05-11T12:32:17.579Z,8.9
2018-05-11T12:33:17.715Z,9.12
2018-05-11T12:34:17.566Z,9.37
2018-05-11T12:35:17.586Z,9.78
2018-05-11T12:36:17.562Z,9.16
2018-05-11T12:37:17.548Z,9.1
2018-05-11T12:38:17.560Z,8.84
2018-05-11T12:39:17.798Z,8.96
2018-05-11T12:40:17.564Z,9.13
2018-05-11T12:41:17.579Z,8.96
2018-05-11T12:42:17.569Z,9.01
2018-05-11T12:43:17.585Z,8.92
2018-05-11T12:44:17.600Z,9.16
2018-05-11T12:45:17.552Z,9.23
2018-05-11T12:46:17.545Z,9
2018-05-11T12:47:17.562Z,9.06
2018-05-11T12:48:17.562Z,9.41
2018-05-11T12:49:17.602Z,9.14
2018-05-11T12:50:17.617Z,9.11
2018-05-11T12:51:17.567Z,9.37
2018-05-11T12:52:17.578Z,9.35
2018-05-11T12:53:17.583Z,9.08
2018-05-11T12:54:17.719Z,9.16
2018-05-11T12:55:17.651Z,9.27
2018-05-11T12:56:17.567Z,9.52
2018-05-11T12:57:17.768Z,9.47
2018-05-11T12:58:17.605Z,9.77
2018-05-11T12:59:17.595Z,9.47
2018-05-11T13:00:17.568Z,9.52
2018-05-11T13:01:17.562Z,9.35
2018-05-11T13:02:18.680Z,8.72
2018-05-11T13:03:17.631Z,9.2
2018-05-11T13:04:17.595Z,9.18